ADDS METAR Data INFO
IDs: Format: Raw Decoded Include TAF

Data at: 1038 UTC 19 Oct 2017

KOLF 190953Z AUTO 00000KT 10SM CLR 03/M03 A2970 RMK AO2 SLP066 T00331028
KOLF 190853Z AUTO 00000KT 10SM CLR 02/M03 A2971 RMK AO2 SLP069 T00221028 56016
KOLF 190753Z AUTO 00000KT 10SM CLR 02/M03 A2973 RMK AO2 SLP074 T00221028
KOLF 190653Z AUTO 07003KT 10SM CLR 03/M04 A2974 RMK AO2 SLP081 T00331039 401670033
KOLF 190553Z AUTO 03005KT 10SM CLR 04/M04 A2976 RMK AO2 SLP087 T00441044 10133 20039 58021
KOLF 190453Z AUTO 01003KT 10SM CLR 05/M04 A2979 RMK AO2 SLP097 T00501044
KOLF 190353Z AUTO 01004KT 10SM CLR 06/M04 A2981 RMK AO2 SLP104 T00611039
KOLF 190253Z AUTO 03006KT 10SM CLR 06/M04 A2983 RMK AO2 SLP113 T00611044 58014
KOLF 190153Z AUTO 03004KT 10SM CLR 06/M05 A2984 RMK AO2 SLP119 T00561050
KOLF 190053Z AUTO 00000KT 10SM CLR 08/M04 A2986 RMK AO2 SLP123 T00781044
KOLF 182353Z AUTO 00000KT 10SM CLR 13/M04 A2987 RMK AO2 SLP122 T01331044 10167 20122 58015
KOLF 182253Z AUTO 25006KT 10SM CLR 16/M06 A2989 RMK AO2 SLP127 T01561061
KOLF 182153Z AUTO 24008KT 10SM CLR 15/M08 A2991 RMK AO2 SLP134 T01501078
KOLF 182053Z AUTO 24014G22KT 10SM CLR 16/M07 A2992 RMK AO2 SLP134 T01611072 58023
KOLF 181953Z AUTO 25012G19KT 10SM CLR 15/M06 A2994 RMK AO2 SLP143 T01501061
KOLF 181853Z AUTO 25008KT 10SM FEW080 13/M04 A2997 RMK AO2 SLP153 T01331044
KOLF 181753Z AUTO 24011G17KT 10SM CLR 13/M05 A2999 RMK AO2 SLP155 T01281050 10128 20050 58000
KOLF 181653Z AUTO 26011KT 10SM FEW090 12/M05 A3000 RMK AO2 SLP159 T01171050
KOLF 181553Z AUTO 27012KT 10SM CLR 10/M04 A3001 RMK AO2 SLP162 T01001044
KOLF 181453Z AUTO 26008KT 10SM CLR 07/M03 A2999 RMK AO2 SLP161 T00721033 52020
KOLF 181353Z AUTO 24009KT 10SM CLR 06/M04 A2996 RMK AO2 SLP152 T00611039
KOLF 181253Z AUTO 23009KT 10SM CLR 06/M03 A2996 RMK AO2 SLP149 T00611033
KOLF 181153Z AUTO 25009KT 10SM CLR 07/M03 A2993 RMK AO2 SLP137 T00671028 10189 20061 53031
KOLF 181053Z AUTO 26011KT 10SM CLR 08/M02 A2989 RMK AO2 SLP119 T00781022
KOLF 180953Z AUTO 26011KT 10SM OVC100 09/M01 A2986 RMK AO2 SLP109 T00891011
KOLF 180853Z AUTO 29013G19KT 10SM OVC090 10/M01 A2983 RMK AO2 SLP097 T01001006 51068
KOLF 180753Z AUTO 28014KT 10SM CLR 10/01 A2980 RMK AO2 PK WND 30035/0706 PRESRR SLP086 T01000011
KOLF 180653Z AUTO 30021G33KT 10SM CLR 13/02 A2972 RMK AO2 PK WND 32049/0609 PRESRR SLP060 T01280017 402670000
KOLF 180553Z AUTO 31032G46KT 8SM CLR 19/M03 A2962 RMK AO2 PK WND 28047/0543 PRESRR SLP020 T01941033 10222 20156 53045
KOLF 180453Z AUTO 26018G25KT 10SM CLR 21/M04 A2956 RMK AO2 PK WND 23030/0415 SLP001 T02061039
KOLF 180353Z AUTO 23018G24KT 10SM CLR 21/M04 A2947 RMK AO2 PK WND 22027/0330 SLP975 T02061039
KOLF 180253Z AUTO 21005KT 10SM CLR 17/M03 A2948 RMK AO2 SLP983 T01721033 56028
KOLF 180153Z AUTO 20006KT 10SM CLR 17/M04 A2950 RMK AO2 SLP994 T01721039
KOLF 180053Z AUTO 20010KT 10SM CLR 18/M04 A2953 RMK AO2 SLP004 T01831039
KOLF 172353Z AUTO 22008KT 10SM CLR 22/M04 A2956 RMK AO2 SLP013 T02221039 10267 20222 56024
KOLF 172253Z AUTO 24013KT 10SM CLR 26/M06 A2959 RMK AO2 PK WND 23029/2200 SLP019 T02611056